sensor_id;sensor_type;location;lat;lon;timestamp;P1;durP1;ratioP1;P2;durP2;ratioP2
2772;SDS011;1394;47.044;15.744;2023-02-04T00:02:07;25.70;;;1.50;;
2772;SDS011;1394;47.044;15.744;2023-02-04T00:04:38;25.67;;;1.30;;
2772;SDS011;1394;47.044;15.744;2023-02-04T00:07:06;24.70;;;1.20;;
2772;SDS011;1394;47.044;15.744;2023-02-04T00:09:33;24.63;;;1.10;;
2772;SDS011;1394;47.044;15.744;2023-02-04T00:12:03;25.30;;;1.30;;
2772;SDS011;1394;47.044;15.744;2023-02-04T00:14:30;24.87;;;1.30;;
2772;SDS011;1394;47.044;15.744;2023-02-04T00:16:57;25.47;;;1.50;;
2772;SDS011;1394;47.044;15.744;2023-02-04T00:19:26;25.03;;;1.40;;
2772;SDS011;1394;47.044;15.744;2023-02-04T00:21:57;25.07;;;1.20;;
2772;SDS011;1394;47.044;15.744;2023-02-04T00:24:25;25.80;;;1.57;;
2772;SDS011;1394;47.044;15.744;2023-02-04T00:26:52;25.53;;;1.50;;
2772;SDS011;1394;47.044;15.744;2023-02-04T00:29:19;25.43;;;1.30;;
2772;SDS011;1394;47.044;15.744;2023-02-04T00:31:47;25.20;;;1.50;;
2772;SDS011;1394;47.044;15.744;2023-02-04T00:34:14;24.60;;;1.30;;
2772;SDS011;1394;47.044;15.744;2023-02-04T00:36:42;24.47;;;1.10;;
2772;SDS011;1394;47.044;15.744;2023-02-04T00:39:13;24.30;;;1.13;;
2772;SDS011;1394;47.044;15.744;2023-02-04T00:41:41;24.80;;;1.60;;
2772;SDS011;1394;47.044;15.744;2023-02-04T00:44:09;24.90;;;1.40;;
2772;SDS011;1394;47.044;15.744;2023-02-04T00:46:38;24.40;;;1.20;;
2772;SDS011;1394;47.044;15.744;2023-02-04T00:49:07;25.17;;;1.93;;
2772;SDS011;1394;47.044;15.744;2023-02-04T00:51:36;24.70;;;1.23;;
2772;SDS011;1394;47.044;15.744;2023-02-04T00:54:04;24.27;;;1.10;;
2772;SDS011;1394;47.044;15.744;2023-02-04T00:56:36;24.77;;;1.20;;
2772;SDS011;1394;47.044;15.744;2023-02-04T00:59:03;24.20;;;0.93;;
2772;SDS011;1394;47.044;15.744;2023-02-04T01:01:32;24.90;;;1.30;;
2772;SDS011;1394;47.044;15.744;2023-02-04T01:03:59;24.50;;;1.30;;
2772;SDS011;1394;47.044;15.744;2023-02-04T01:06:27;25.07;;;1.60;;
2772;SDS011;1394;47.044;15.744;2023-02-04T01:08:54;24.70;;;1.03;;
2772;SDS011;1394;47.044;15.744;2023-02-04T01:11:23;24.23;;;1.03;;
2772;SDS011;1394;47.044;15.744;2023-02-04T01:13:52;24.63;;;1.30;;
2772;SDS011;1394;47.044;15.744;2023-02-04T01:16:19;25.07;;;1.50;;
2772;SDS011;1394;47.044;15.744;2023-02-04T01:18:46;24.50;;;1.10;;
2772;SDS011;1394;47.044;15.744;2023-02-04T01:21:16;24.47;;;1.07;;
2772;SDS011;1394;47.044;15.744;2023-02-04T01:23:43;24.50;;;1.10;;
2772;SDS011;1394;47.044;15.744;2023-02-04T01:26:10;24.30;;;0.90;;
2772;SDS011;1394;47.044;15.744;2023-02-04T01:28:37;24.53;;;1.03;;
2772;SDS011;1394;47.044;15.744;2023-02-04T01:31:06;23.90;;;0.80;;
2772;SDS011;1394;47.044;15.744;2023-02-04T01:33:33;24.30;;;0.53;;
2772;SDS011;1394;47.044;15.744;2023-02-04T01:36:06;23.93;;;0.50;;
2772;SDS011;1394;47.044;15.744;2023-02-04T01:38:34;24.13;;;0.50;;
2772;SDS011;1394;47.044;15.744;2023-02-04T01:41:03;24.00;;;0.40;;
2772;SDS011;1394;47.044;15.744;2023-02-04T01:43:31;24.93;;;0.60;;
2772;SDS011;1394;47.044;15.744;2023-02-04T01:45:59;24.10;;;0.70;;
2772;SDS011;1394;47.044;15.744;2023-02-04T01:48:30;24.73;;;0.70;;
2772;SDS011;1394;47.044;15.744;2023-02-04T01:50:59;23.97;;;0.60;;
2772;SDS011;1394;47.044;15.744;2023-02-04T01:53:31;24.13;;;0.40;;
2772;SDS011;1394;47.044;15.744;2023-02-04T01:55:58;24.60;;;0.50;;
2772;SDS011;1394;47.044;15.744;2023-02-04T01:58:33;23.90;;;0.47;;
2772;SDS011;1394;47.044;15.744;2023-02-04T02:01:00;24.10;;;0.50;;
2772;SDS011;1394;47.044;15.744;2023-02-04T02:03:28;23.80;;;0.50;;
2772;SDS011;1394;47.044;15.744;2023-02-04T02:05:55;24.73;;;0.50;;
2772;SDS011;1394;47.044;15.744;2023-02-04T02:08:23;23.90;;;0.57;;
2772;SDS011;1394;47.044;15.744;2023-02-04T02:10:50;24.20;;;0.50;;
2772;SDS011;1394;47.044;15.744;2023-02-04T02:13:18;24.07;;;0.40;;
2772;SDS011;1394;47.044;15.744;2023-02-04T02:15:45;24.10;;;0.40;;
2772;SDS011;1394;47.044;15.744;2023-02-04T02:18:17;24.00;;;0.50;;
2772;SDS011;1394;47.044;15.744;2023-02-04T02:20:46;24.00;;;0.40;;
2772;SDS011;1394;47.044;15.744;2023-02-04T02:23:16;24.00;;;0.50;;
2772;SDS011;1394;47.044;15.744;2023-02-04T02:25:46;24.10;;;0.50;;
2772;SDS011;1394;47.044;15.744;2023-02-04T02:28:14;24.00;;;0.50;;
2772;SDS011;1394;47.044;15.744;2023-02-04T02:30:42;23.70;;;0.40;;
2772;SDS011;1394;47.044;15.744;2023-02-04T02:33:10;24.10;;;0.50;;
2772;SDS011;1394;47.044;15.744;2023-02-04T02:35:38;23.90;;;0.40;;
2772;SDS011;1394;47.044;15.744;2023-02-04T02:38:07;23.90;;;0.50;;
2772;SDS011;1394;47.044;15.744;2023-02-04T02:40:35;24.07;;;0.50;;
2772;SDS011;1394;47.044;15.744;2023-02-04T02:43:03;24.00;;;0.50;;
2772;SDS011;1394;47.044;15.744;2023-02-04T02:45:31;23.80;;;0.40;;
2772;SDS011;1394;47.044;15.744;2023-02-04T02:48:00;24.00;;;0.60;;
2772;SDS011;1394;47.044;15.744;2023-02-04T02:50:29;24.13;;;0.40;;
2772;SDS011;1394;47.044;15.744;2023-02-04T02:52:57;23.50;;;0.40;;
2772;SDS011;1394;47.044;15.744;2023-02-04T02:55:25;23.70;;;0.47;;
2772;SDS011;1394;47.044;15.744;2023-02-04T02:57:53;24.07;;;0.40;;
2772;SDS011;1394;47.044;15.744;2023-02-04T03:00:23;23.70;;;0.40;;
2772;SDS011;1394;47.044;15.744;2023-02-04T03:02:54;23.70;;;0.40;;
2772;SDS011;1394;47.044;15.744;2023-02-04T03:05:21;24.00;;;0.50;;
2772;SDS011;1394;47.044;15.744;2023-02-04T03:07:59;24.73;;;0.57;;
2772;SDS011;1394;47.044;15.744;2023-02-04T03:10:27;23.90;;;0.40;;
2772;SDS011;1394;47.044;15.744;2023-02-04T03:12:54;24.00;;;0.57;;
2772;SDS011;1394;47.044;15.744;2023-02-04T03:15:23;23.90;;;0.40;;
2772;SDS011;1394;47.044;15.744;2023-02-04T03:17:50;24.20;;;0.60;;
2772;SDS011;1394;47.044;15.744;2023-02-04T03:20:20;23.90;;;0.40;;
2772;SDS011;1394;47.044;15.744;2023-02-04T03:22:51;23.90;;;0.40;;
2772;SDS011;1394;47.044;15.744;2023-02-04T03:25:18;24.17;;;0.50;;
2772;SDS011;1394;47.044;15.744;2023-02-04T03:27:48;23.60;;;0.40;;
2772;SDS011;1394;47.044;15.744;2023-02-04T03:30:15;23.90;;;0.40;;
2772;SDS011;1394;47.044;15.744;2023-02-04T03:32:46;24.57;;;0.50;;
2772;SDS011;1394;47.044;15.744;2023-02-04T03:35:14;24.00;;;0.40;;
2772;SDS011;1394;47.044;15.744;2023-02-04T03:37:41;23.80;;;0.40;;
2772;SDS011;1394;47.044;15.744;2023-02-04T03:40:11;24.00;;;0.40;;
2772;SDS011;1394;47.044;15.744;2023-02-04T03:42:38;23.97;;;0.40;;
2772;SDS011;1394;47.044;15.744;2023-02-04T03:45:11;23.80;;;0.40;;
2772;SDS011;1394;47.044;15.744;2023-02-04T03:47:41;24.20;;;0.43;;
2772;SDS011;1394;47.044;15.744;2023-02-04T03:50:10;24.00;;;0.40;;
2772;SDS011;1394;47.044;15.744;2023-02-04T03:52:38;24.00;;;0.40;;
2772;SDS011;1394;47.044;15.744;2023-02-04T03:55:05;24.10;;;0.40;;
2772;SDS011;1394;47.044;15.744;2023-02-04T03:57:33;24.27;;;0.50;;
2772;SDS011;1394;47.044;15.744;2023-02-04T04:00:01;23.83;;;0.40;;
2772;SDS011;1394;47.044;15.744;2023-02-04T04:02:28;23.80;;;0.40;;
2772;SDS011;1394;47.044;15.744;2023-02-04T04:04:55;24.00;;;0.50;;
2772;SDS011;1394;47.044;15.744;2023-02-04T04:07:24;24.07;;;0.50;;
2772;SDS011;1394;47.044;15.744;2023-02-04T04:09:51;23.90;;;0.40;;
2772;SDS011;1394;47.044;15.744;2023-02-04T04:12:19;23.80;;;0.50;;
2772;SDS011;1394;47.044;15.744;2023-02-04T04:14:46;23.90;;;0.40;;
2772;SDS011;1394;47.044;15.744;2023-02-04T04:17:16;23.90;;;0.40;;
2772;SDS011;1394;47.044;15.744;2023-02-04T04:19:43;23.90;;;0.50;;
2772;SDS011;1394;47.044;15.744;2023-02-04T04:22:11;24.10;;;0.53;;
2772;SDS011;1394;47.044;15.744;2023-02-04T04:24:40;24.40;;;0.70;;
2772;SDS011;1394;47.044;15.744;2023-02-04T04:27:07;25.37;;;1.63;;
2772;SDS011;1394;47.044;15.744;2023-02-04T04:29:35;37.47;;;9.80;;
2772;SDS011;1394;47.044;15.744;2023-02-04T04:32:02;36.30;;;8.10;;
2772;SDS011;1394;47.044;15.744;2023-02-04T04:34:30;30.43;;;4.90;;
2772;SDS011;1394;47.044;15.744;2023-02-04T04:36:57;26.43;;;2.40;;
2772;SDS011;1394;47.044;15.744;2023-02-04T04:39:25;24.63;;;0.90;;
2772;SDS011;1394;47.044;15.744;2023-02-04T04:41:53;24.40;;;0.87;;
2772;SDS011;1394;47.044;15.744;2023-02-04T04:44:21;24.00;;;0.60;;
2772;SDS011;1394;47.044;15.744;2023-02-04T04:46:49;24.20;;;0.60;;
2772;SDS011;1394;47.044;15.744;2023-02-04T04:49:16;23.80;;;0.40;;
2772;SDS011;1394;47.044;15.744;2023-02-04T04:51:45;23.93;;;0.47;;
2772;SDS011;1394;47.044;15.744;2023-02-04T04:54:12;24.10;;;0.90;;
2772;SDS011;1394;47.044;15.744;2023-02-04T04:56:40;23.70;;;0.40;;
2772;SDS011;1394;47.044;15.744;2023-02-04T04:59:09;23.93;;;0.40;;
2772;SDS011;1394;47.044;15.744;2023-02-04T05:01:36;24.00;;;0.50;;
2772;SDS011;1394;47.044;15.744;2023-02-04T05:04:03;23.80;;;0.40;;
2772;SDS011;1394;47.044;15.744;2023-02-04T05:06:30;24.00;;;0.40;;
2772;SDS011;1394;47.044;15.744;2023-02-04T05:08:59;23.90;;;0.50;;
2772;SDS011;1394;47.044;15.744;2023-02-04T05:11:30;23.90;;;0.40;;
2772;SDS011;1394;47.044;15.744;2023-02-04T05:13:57;24.07;;;0.40;;
2772;SDS011;1394;47.044;15.744;2023-02-04T05:16:27;23.90;;;0.43;;
2772;SDS011;1394;47.044;15.744;2023-02-04T05:18:54;23.90;;;0.40;;
2772;SDS011;1394;47.044;15.744;2023-02-04T05:21:21;23.97;;;0.30;;
2772;SDS011;1394;47.044;15.744;2023-02-04T05:23:50;23.90;;;0.40;;
2772;SDS011;1394;47.044;15.744;2023-02-04T05:26:17;23.80;;;0.40;;
2772;SDS011;1394;47.044;15.744;2023-02-04T05:28:45;23.93;;;0.40;;
2772;SDS011;1394;47.044;15.744;2023-02-04T05:31:12;23.80;;;0.43;;
2772;SDS011;1394;47.044;15.744;2023-02-04T05:33:43;23.70;;;0.40;;
2772;SDS011;1394;47.044;15.744;2023-02-04T05:36:11;24.00;;;0.40;;
2772;SDS011;1394;47.044;15.744;2023-02-04T05:38:38;23.80;;;0.40;;
2772;SDS011;1394;47.044;15.744;2023-02-04T05:41:05;23.90;;;0.40;;
2772;SDS011;1394;47.044;15.744;2023-02-04T05:43:32;23.77;;;0.40;;
2772;SDS011;1394;47.044;15.744;2023-02-04T05:46:01;23.87;;;0.47;;
2772;SDS011;1394;47.044;15.744;2023-02-04T05:48:28;23.70;;;0.40;;
2772;SDS011;1394;47.044;15.744;2023-02-04T05:50:57;23.97;;;0.50;;
2772;SDS011;1394;47.044;15.744;2023-02-04T05:53:27;23.80;;;0.50;;
2772;SDS011;1394;47.044;15.744;2023-02-04T05:55:56;23.90;;;0.50;;
2772;SDS011;1394;47.044;15.744;2023-02-04T05:58:23;24.00;;;0.40;;
2772;SDS011;1394;47.044;15.744;2023-02-04T06:00:58;23.90;;;0.40;;
2772;SDS011;1394;47.044;15.744;2023-02-04T06:03:30;23.90;;;0.40;;
2772;SDS011;1394;47.044;15.744;2023-02-04T06:06:01;23.90;;;0.40;;
2772;SDS011;1394;47.044;15.744;2023-02-04T06:08:31;23.90;;;0.40;;
2772;SDS011;1394;47.044;15.744;2023-02-04T06:10:59;23.70;;;0.40;;
2772;SDS011;1394;47.044;15.744;2023-02-04T06:13:26;23.87;;;0.40;;
2772;SDS011;1394;47.044;15.744;2023-02-04T06:15:53;24.53;;;0.53;;
2772;SDS011;1394;47.044;15.744;2023-02-04T06:18:20;23.80;;;0.40;;
2772;SDS011;1394;47.044;15.744;2023-02-04T06:20:48;23.70;;;0.40;;
2772;SDS011;1394;47.044;15.744;2023-02-04T06:23:18;24.00;;;0.50;;
2772;SDS011;1394;47.044;15.744;2023-02-04T06:25:46;23.90;;;0.50;;
2772;SDS011;1394;47.044;15.744;2023-02-04T06:28:14;23.70;;;0.40;;
2772;SDS011;1394;47.044;15.744;2023-02-04T06:30:41;23.80;;;0.40;;
2772;SDS011;1394;47.044;15.744;2023-02-04T06:33:08;23.60;;;0.40;;
2772;SDS011;1394;47.044;15.744;2023-02-04T06:35:37;23.80;;;0.40;;
2772;SDS011;1394;47.044;15.744;2023-02-04T06:38:07;23.80;;;0.47;;
2772;SDS011;1394;47.044;15.744;2023-02-04T06:40:37;23.80;;;0.40;;
2772;SDS011;1394;47.044;15.744;2023-02-04T06:43:04;24.00;;;0.50;;
2772;SDS011;1394;47.044;15.744;2023-02-04T06:45:31;24.13;;;0.53;;
2772;SDS011;1394;47.044;15.744;2023-02-04T06:48:01;23.90;;;0.60;;
2772;SDS011;1394;47.044;15.744;2023-02-04T06:50:28;23.80;;;0.50;;
2772;SDS011;1394;47.044;15.744;2023-02-04T06:52:57;23.90;;;0.50;;
2772;SDS011;1394;47.044;15.744;2023-02-04T06:55:27;24.07;;;0.40;;
2772;SDS011;1394;47.044;15.744;2023-02-04T06:57:56;23.83;;;0.50;;
2772;SDS011;1394;47.044;15.744;2023-02-04T07:00:28;24.07;;;0.60;;
2772;SDS011;1394;47.044;15.744;2023-02-04T07:02:56;24.50;;;1.03;;
2772;SDS011;1394;47.044;15.744;2023-02-04T07:05:26;24.30;;;1.00;;
2772;SDS011;1394;47.044;15.744;2023-02-04T07:07:57;24.37;;;1.07;;
2772;SDS011;1394;47.044;15.744;2023-02-04T07:10:24;23.90;;;0.70;;
2772;SDS011;1394;47.044;15.744;2023-02-04T07:12:51;23.90;;;0.50;;
2772;SDS011;1394;47.044;15.744;2023-02-04T07:15:20;23.80;;;0.50;;
2772;SDS011;1394;47.044;15.744;2023-02-04T07:17:47;23.80;;;0.60;;
2772;SDS011;1394;47.044;15.744;2023-02-04T07:20:16;23.77;;;0.60;;
2772;SDS011;1394;47.044;15.744;2023-02-04T07:22:43;24.17;;;0.80;;
2772;SDS011;1394;47.044;15.744;2023-02-04T07:25:11;24.87;;;0.90;;
2772;SDS011;1394;47.044;15.744;2023-02-04T07:27:42;23.70;;;0.80;;
2772;SDS011;1394;47.044;15.744;2023-02-04T07:30:09;23.80;;;0.70;;
2772;SDS011;1394;47.044;15.744;2023-02-04T07:32:38;23.80;;;0.80;;
2772;SDS011;1394;47.044;15.744;2023-02-04T07:35:06;23.90;;;0.80;;
2772;SDS011;1394;47.044;15.744;2023-02-04T07:37:34;23.80;;;0.60;;
2772;SDS011;1394;47.044;15.744;2023-02-04T07:40:02;23.77;;;0.50;;
2772;SDS011;1394;47.044;15.744;2023-02-04T07:42:29;24.03;;;0.50;;
2772;SDS011;1394;47.044;15.744;2023-02-04T07:44:58;24.63;;;0.60;;
2772;SDS011;1394;47.044;15.744;2023-02-04T07:47:25;24.10;;;0.80;;
2772;SDS011;1394;47.044;15.744;2023-02-04T07:49:55;24.27;;;0.80;;
2772;SDS011;1394;47.044;15.744;2023-02-04T07:52:22;23.70;;;0.50;;
2772;SDS011;1394;47.044;15.744;2023-02-04T07:54:50;23.90;;;0.60;;
2772;SDS011;1394;47.044;15.744;2023-02-04T07:57:17;24.03;;;0.70;;
2772;SDS011;1394;47.044;15.744;2023-02-04T07:59:44;23.70;;;0.60;;
2772;SDS011;1394;47.044;15.744;2023-02-04T08:02:13;24.07;;;0.60;;
2772;SDS011;1394;47.044;15.744;2023-02-04T08:04:42;24.17;;;0.60;;
2772;SDS011;1394;47.044;15.744;2023-02-04T08:07:10;24.03;;;0.60;;
2772;SDS011;1394;47.044;15.744;2023-02-04T08:09:38;23.80;;;0.60;;
2772;SDS011;1394;47.044;15.744;2023-02-04T08:12:05;24.20;;;0.70;;
2772;SDS011;1394;47.044;15.744;2023-02-04T08:14:32;24.30;;;0.53;;
2772;SDS011;1394;47.044;15.744;2023-02-04T08:16:59;24.17;;;0.50;;
2772;SDS011;1394;47.044;15.744;2023-02-04T08:19:27;23.90;;;0.57;;
2772;SDS011;1394;47.044;15.744;2023-02-04T08:21:54;24.10;;;0.60;;
2772;SDS011;1394;47.044;15.744;2023-02-04T08:24:23;24.10;;;0.50;;
2772;SDS011;1394;47.044;15.744;2023-02-04T08:26:50;23.80;;;0.50;;
2772;SDS011;1394;47.044;15.744;2023-02-04T08:29:19;24.77;;;0.50;;
2772;SDS011;1394;47.044;15.744;2023-02-04T08:31:49;23.80;;;0.60;;
2772;SDS011;1394;47.044;15.744;2023-02-04T08:34:19;23.80;;;0.40;;
2772;SDS011;1394;47.044;15.744;2023-02-04T08:36:47;23.70;;;0.40;;
2772;SDS011;1394;47.044;15.744;2023-02-04T08:39:15;23.80;;;0.50;;
2772;SDS011;1394;47.044;15.744;2023-02-04T08:41:45;23.90;;;0.43;;
2772;SDS011;1394;47.044;15.744;2023-02-04T08:44:13;23.87;;;0.50;;
2772;SDS011;1394;47.044;15.744;2023-02-04T08:46:40;23.80;;;0.50;;
2772;SDS011;1394;47.044;15.744;2023-02-04T08:49:08;23.60;;;0.50;;
2772;SDS011;1394;47.044;15.744;2023-02-04T08:51:36;24.87;;;0.50;;
2772;SDS011;1394;47.044;15.744;2023-02-04T08:54:03;23.73;;;0.47;;
2772;SDS011;1394;47.044;15.744;2023-02-04T08:56:30;23.90;;;0.60;;
2772;SDS011;1394;47.044;15.744;2023-02-04T08:59:00;24.37;;;0.80;;
2772;SDS011;1394;47.044;15.744;2023-02-04T09:01:29;23.90;;;0.50;;
2772;SDS011;1394;47.044;15.744;2023-02-04T09:03:59;24.00;;;0.50;;
2772;SDS011;1394;47.044;15.744;2023-02-04T09:06:27;23.70;;;0.40;;
2772;SDS011;1394;47.044;15.744;2023-02-04T09:08:54;23.70;;;0.40;;
2772;SDS011;1394;47.044;15.744;2023-02-04T09:11:22;23.87;;;0.50;;
2772;SDS011;1394;47.044;15.744;2023-02-04T09:13:49;23.90;;;0.50;;
2772;SDS011;1394;47.044;15.744;2023-02-04T09:16:17;23.80;;;0.40;;
2772;SDS011;1394;47.044;15.744;2023-02-04T09:18:45;23.90;;;0.47;;
2772;SDS011;1394;47.044;15.744;2023-02-04T09:21:12;23.80;;;0.50;;
2772;SDS011;1394;47.044;15.744;2023-02-04T09:23:39;24.60;;;0.60;;
2772;SDS011;1394;47.044;15.744;2023-02-04T09:26:08;23.97;;;0.47;;
2772;SDS011;1394;47.044;15.744;2023-02-04T09:28:38;23.90;;;0.60;;
2772;SDS011;1394;47.044;15.744;2023-02-04T09:31:05;23.80;;;0.50;;
2772;SDS011;1394;47.044;15.744;2023-02-04T09:33:37;23.70;;;0.40;;
2772;SDS011;1394;47.044;15.744;2023-02-04T09:36:04;23.80;;;0.50;;
2772;SDS011;1394;47.044;15.744;2023-02-04T09:38:31;24.07;;;0.50;;
2772;SDS011;1394;47.044;15.744;2023-02-04T09:41:00;23.60;;;0.40;;
2772;SDS011;1394;47.044;15.744;2023-02-04T09:43:30;23.90;;;0.40;;
2772;SDS011;1394;47.044;15.744;2023-02-04T09:46:06;25.57;;;0.53;;
2772;SDS011;1394;47.044;15.744;2023-02-04T09:48:33;24.00;;;0.60;;
2772;SDS011;1394;47.044;15.744;2023-02-04T09:51:04;23.90;;;0.60;;
2772;SDS011;1394;47.044;15.744;2023-02-04T09:53:34;24.30;;;1.10;;
2772;SDS011;1394;47.044;15.744;2023-02-04T09:56:04;23.87;;;0.50;;
2772;SDS011;1394;47.044;15.744;2023-02-04T09:58:34;24.63;;;0.70;;
2772;SDS011;1394;47.044;15.744;2023-02-04T10:01:04;23.90;;;0.50;;
2772;SDS011;1394;47.044;15.744;2023-02-04T10:03:35;24.67;;;0.80;;
2772;SDS011;1394;47.044;15.744;2023-02-04T10:06:04;24.33;;;0.70;;
2772;SDS011;1394;47.044;15.744;2023-02-04T10:08:32;23.90;;;0.60;;
2772;SDS011;1394;47.044;15.744;2023-02-04T10:11:00;23.90;;;0.67;;
2772;SDS011;1394;47.044;15.744;2023-02-04T10:13:30;24.00;;;0.60;;
2772;SDS011;1394;47.044;15.744;2023-02-04T10:16:01;24.07;;;0.70;;
2772;SDS011;1394;47.044;15.744;2023-02-04T10:18:30;23.97;;;0.50;;
2772;SDS011;1394;47.044;15.744;2023-02-04T10:21:10;23.80;;;0.40;;
2772;SDS011;1394;47.044;15.744;2023-02-04T10:23:38;24.00;;;0.60;;
2772;SDS011;1394;47.044;15.744;2023-02-04T10:26:08;24.00;;;0.70;;
2772;SDS011;1394;47.044;15.744;2023-02-04T10:28:36;24.63;;;0.53;;
2772;SDS011;1394;47.044;15.744;2023-02-04T10:31:04;24.00;;;0.53;;
2772;SDS011;1394;47.044;15.744;2023-02-04T10:33:34;25.60;;;0.60;;
2772;SDS011;1394;47.044;15.744;2023-02-04T10:36:06;23.80;;;0.50;;
2772;SDS011;1394;47.044;15.744;2023-02-04T10:38:33;23.80;;;0.50;;
2772;SDS011;1394;47.044;15.744;2023-02-04T10:41:02;24.07;;;0.70;;
2772;SDS011;1394;47.044;15.744;2023-02-04T10:43:29;26.80;;;0.60;;
2772;SDS011;1394;47.044;15.744;2023-02-04T10:45:57;24.23;;;0.50;;
2772;SDS011;1394;47.044;15.744;2023-02-04T10:48:25;23.90;;;0.50;;
2772;SDS011;1394;47.044;15.744;2023-02-04T10:50:54;24.17;;;0.60;;
2772;SDS011;1394;47.044;15.744;2023-02-04T10:53:24;24.33;;;0.80;;
2772;SDS011;1394;47.044;15.744;2023-02-04T10:56:11;23.97;;;0.60;;
2772;SDS011;1394;47.044;15.744;2023-02-04T10:58:41;24.20;;;0.67;;
2772;SDS011;1394;47.044;15.744;2023-02-04T11:01:11;23.90;;;0.70;;
2772;SDS011;1394;47.044;15.744;2023-02-04T11:03:39;24.20;;;0.60;;
2772;SDS011;1394;47.044;15.744;2023-02-04T11:06:09;25.07;;;0.70;;
2772;SDS011;1394;47.044;15.744;2023-02-04T11:08:38;24.00;;;0.50;;
2772;SDS011;1394;47.044;15.744;2023-02-04T11:11:06;24.03;;;0.50;;
2772;SDS011;1394;47.044;15.744;2023-02-04T11:13:41;24.10;;;0.60;;
2772;SDS011;1394;47.044;15.744;2023-02-04T11:16:11;24.07;;;0.80;;
2772;SDS011;1394;47.044;15.744;2023-02-04T11:18:44;24.20;;;0.60;;
2772;SDS011;1394;47.044;15.744;2023-02-04T11:21:19;23.70;;;0.50;;
2772;SDS011;1394;47.044;15.744;2023-02-04T11:24:03;23.73;;;0.60;;
2772;SDS011;1394;47.044;15.744;2023-02-04T11:26:32;24.73;;;0.60;;
2772;SDS011;1394;47.044;15.744;2023-02-04T11:29:09;24.23;;;0.60;;
2772;SDS011;1394;47.044;15.744;2023-02-04T11:31:41;23.90;;;0.50;;
2772;SDS011;1394;47.044;15.744;2023-02-04T11:34:23;24.20;;;0.70;;
2772;SDS011;1394;47.044;15.744;2023-02-04T11:36:54;24.13;;;0.60;;
2772;SDS011;1394;47.044;15.744;2023-02-04T11:39:25;24.10;;;0.70;;
2772;SDS011;1394;47.044;15.744;2023-02-04T11:41:54;24.00;;;0.60;;
2772;SDS011;1394;47.044;15.744;2023-02-04T11:44:21;24.10;;;0.50;;
2772;SDS011;1394;47.044;15.744;2023-02-04T11:46:51;24.00;;;0.50;;
2772;SDS011;1394;47.044;15.744;2023-02-04T11:49:19;24.57;;;0.70;;
2772;SDS011;1394;47.044;15.744;2023-02-04T11:51:48;24.07;;;0.60;;
2772;SDS011;1394;47.044;15.744;2023-02-04T11:54:16;24.20;;;0.60;;
2772;SDS011;1394;47.044;15.744;2023-02-04T11:56:51;23.97;;;0.40;;
2772;SDS011;1394;47.044;15.744;2023-02-04T11:59:19;23.80;;;0.50;;
2772;SDS011;1394;47.044;15.744;2023-02-04T12:01:47;23.90;;;0.40;;
2772;SDS011;1394;47.044;15.744;2023-02-04T12:04:20;23.80;;;0.50;;
2772;SDS011;1394;47.044;15.744;2023-02-04T12:06:55;23.80;;;0.50;;
2772;SDS011;1394;47.044;15.744;2023-02-04T12:09:25;24.00;;;0.50;;
2772;SDS011;1394;47.044;15.744;2023-02-04T12:11:59;24.30;;;0.50;;
2772;SDS011;1394;47.044;15.744;2023-02-04T12:14:30;23.70;;;0.50;;
2772;SDS011;1394;47.044;15.744;2023-02-04T12:16:58;23.70;;;0.60;;
2772;SDS011;1394;47.044;15.744;2023-02-04T12:19:25;25.73;;;0.67;;
2772;SDS011;1394;47.044;15.744;2023-02-04T12:21:53;23.90;;;0.50;;
2772;SDS011;1394;47.044;15.744;2023-02-04T12:24:23;24.27;;;0.80;;
2772;SDS011;1394;47.044;15.744;2023-02-04T12:26:53;23.90;;;0.60;;
2772;SDS011;1394;47.044;15.744;2023-02-04T12:29:23;23.70;;;0.50;;
2772;SDS011;1394;47.044;15.744;2023-02-04T12:31:53;24.20;;;0.80;;
2772;SDS011;1394;47.044;15.744;2023-02-04T12:34:21;23.90;;;0.53;;
2772;SDS011;1394;47.044;15.744;2023-02-04T12:36:49;24.17;;;0.50;;
2772;SDS011;1394;47.044;15.744;2023-02-04T12:39:16;28.50;;;0.83;;
2772;SDS011;1394;47.044;15.744;2023-02-04T12:41:43;23.90;;;0.60;;
2772;SDS011;1394;47.044;15.744;2023-02-04T12:44:12;23.97;;;0.50;;
2772;SDS011;1394;47.044;15.744;2023-02-04T12:46:42;23.90;;;0.50;;
2772;SDS011;1394;47.044;15.744;2023-02-04T12:49:10;24.00;;;0.50;;
2772;SDS011;1394;47.044;15.744;2023-02-04T12:51:37;23.97;;;0.50;;
2772;SDS011;1394;47.044;15.744;2023-02-04T12:54:06;24.00;;;0.50;;
2772;SDS011;1394;47.044;15.744;2023-02-04T12:56:33;23.80;;;0.50;;
2772;SDS011;1394;47.044;15.744;2023-02-04T12:59:02;24.00;;;0.50;;
2772;SDS011;1394;47.044;15.744;2023-02-04T13:01:31;24.73;;;0.60;;
2772;SDS011;1394;47.044;15.744;2023-02-04T13:04:02;23.90;;;0.50;;
2772;SDS011;1394;47.044;15.744;2023-02-04T13:06:32;23.57;;;0.50;;
2772;SDS011;1394;47.044;15.744;2023-02-04T13:08:59;23.93;;;0.50;;
2772;SDS011;1394;47.044;15.744;2023-02-04T13:11:26;23.87;;;0.60;;
2772;SDS011;1394;47.044;15.744;2023-02-04T13:13:53;24.00;;;0.60;;
2772;SDS011;1394;47.044;15.744;2023-02-04T13:16:20;24.10;;;0.70;;
2772;SDS011;1394;47.044;15.744;2023-02-04T13:18:48;24.10;;;0.70;;
2772;SDS011;1394;47.044;15.744;2023-02-04T13:21:18;23.80;;;0.60;;
2772;SDS011;1394;47.044;15.744;2023-02-04T13:23:46;23.80;;;0.60;;
2772;SDS011;1394;47.044;15.744;2023-02-04T13:26:13;23.90;;;0.60;;
2772;SDS011;1394;47.044;15.744;2023-02-04T13:28:40;23.90;;;0.50;;
2772;SDS011;1394;47.044;15.744;2023-02-04T13:31:08;23.80;;;0.53;;
2772;SDS011;1394;47.044;15.744;2023-02-04T13:33:36;23.90;;;0.60;;
2772;SDS011;1394;47.044;15.744;2023-02-04T13:36:03;23.97;;;0.50;;
2772;SDS011;1394;47.044;15.744;2023-02-04T13:38:37;23.90;;;0.50;;
2772;SDS011;1394;47.044;15.744;2023-02-04T13:41:04;23.70;;;0.50;;
2772;SDS011;1394;47.044;15.744;2023-02-04T13:43:33;26.80;;;0.53;;
2772;SDS011;1394;47.044;15.744;2023-02-04T13:46:00;24.00;;;0.50;;
2772;SDS011;1394;47.044;15.744;2023-02-04T13:48:29;23.90;;;0.60;;
2772;SDS011;1394;47.044;15.744;2023-02-04T13:50:58;24.00;;;0.60;;
2772;SDS011;1394;47.044;15.744;2023-02-04T13:53:28;23.90;;;0.43;;
2772;SDS011;1394;47.044;15.744;2023-02-04T13:55:57;23.60;;;0.50;;
2772;SDS011;1394;47.044;15.744;2023-02-04T13:58:25;23.70;;;0.60;;
2772;SDS011;1394;47.044;15.744;2023-02-04T14:00:54;23.87;;;0.53;;
2772;SDS011;1394;47.044;15.744;2023-02-04T14:03:23;24.07;;;0.67;;
2772;SDS011;1394;47.044;15.744;2023-02-04T14:05:51;23.70;;;0.50;;
2772;SDS011;1394;47.044;15.744;2023-02-04T14:08:18;23.50;;;0.50;;
2772;SDS011;1394;47.044;15.744;2023-02-04T14:10:46;23.87;;;0.60;;
2772;SDS011;1394;47.044;15.744;2023-02-04T14:13:17;23.60;;;0.50;;
2772;SDS011;1394;47.044;15.744;2023-02-04T14:15:44;24.00;;;0.70;;
2772;SDS011;1394;47.044;15.744;2023-02-04T14:18:16;23.80;;;0.70;;
2772;SDS011;1394;47.044;15.744;2023-02-04T14:20:44;23.90;;;0.50;;
2772;SDS011;1394;47.044;15.744;2023-02-04T14:23:13;24.50;;;0.63;;
2772;SDS011;1394;47.044;15.744;2023-02-04T14:25:43;23.70;;;0.50;;
2772;SDS011;1394;47.044;15.744;2023-02-04T14:28:10;23.90;;;0.60;;
2772;SDS011;1394;47.044;15.744;2023-02-04T14:30:38;24.80;;;0.60;;
2772;SDS011;1394;47.044;15.744;2023-02-04T14:33:07;23.90;;;0.50;;
2772;SDS011;1394;47.044;15.744;2023-02-04T14:35:34;24.03;;;0.80;;
2772;SDS011;1394;47.044;15.744;2023-02-04T14:38:02;23.83;;;0.60;;
2772;SDS011;1394;47.044;15.744;2023-02-04T14:40:29;24.20;;;1.10;;
2772;SDS011;1394;47.044;15.744;2023-02-04T14:42:57;24.20;;;0.73;;
2772;SDS011;1394;47.044;15.744;2023-02-04T14:45:24;23.80;;;0.67;;
2772;SDS011;1394;47.044;15.744;2023-02-04T14:47:54;24.13;;;0.60;;
2772;SDS011;1394;47.044;15.744;2023-02-04T14:50:24;23.60;;;0.70;;
2772;SDS011;1394;47.044;15.744;2023-02-04T14:52:57;24.07;;;0.63;;
2772;SDS011;1394;47.044;15.744;2023-02-04T14:55:25;23.90;;;0.70;;
2772;SDS011;1394;47.044;15.744;2023-02-04T14:57:52;23.90;;;0.63;;